createdAt,value
2023-03-27T05:01:49.809Z,3.97
2023-03-27T05:04:20.153Z,10.25
2023-03-27T05:06:56.715Z,7.72
2023-03-27T05:09:29.681Z,11.23
2023-03-27T05:12:06.729Z,8.45
2023-03-27T05:14:37.248Z,5.85
2023-03-27T05:17:16.765Z,5.75
2023-03-27T05:19:53.860Z,10.15
2023-03-27T05:22:25.190Z,8.57
2023-03-27T05:25:01.691Z,8.48
2023-03-27T05:27:32.065Z,10.15
2023-03-27T05:30:08.780Z,11.38
2023-03-27T05:32:47.776Z,8.30
2023-03-27T05:35:19.336Z,10.93
2023-03-27T05:37:56.824Z,12.25
2023-03-27T05:40:29.725Z,9.95
2023-03-27T05:43:07.808Z,13.57
2023-03-27T05:45:38.148Z,10.23
2023-03-27T05:48:18.807Z,10.65
2023-03-27T05:50:49.654Z,15.13
2023-03-27T05:53:29.049Z,13.15
2023-03-27T05:56:02.664Z,12.48
2023-03-27T05:58:40.786Z,11.27
2023-03-27T06:01:11.342Z,7.50
2023-03-27T06:03:50.979Z,10.25
2023-03-27T06:06:21.445Z,7.18
2023-03-27T06:08:57.745Z,8.55
2023-03-27T06:11:28.157Z,9.82
2023-03-27T06:14:04.810Z,10.98
2023-03-27T06:16:35.165Z,13.15
2023-03-27T06:19:15.788Z,7.40
2023-03-27T06:21:46.361Z,11.63
2023-03-27T06:24:23.856Z,8.93
2023-03-27T06:26:54.268Z,8.60
2023-03-27T06:29:31.802Z,7.63
2023-03-27T06:32:02.787Z,6.03
2023-03-27T06:34:41.859Z,12.87
2023-03-27T06:37:12.248Z,11.13
2023-03-27T06:39:49.853Z,10.27
2023-03-27T06:42:26.875Z,10.40
2023-03-27T06:44:57.236Z,15.10
2023-03-27T06:47:44.518Z,10.75
2023-03-27T06:50:25.681Z,10.25
2023-03-27T06:53:04.320Z,6.50
2023-03-27T06:55:38.006Z,6.53
2023-03-27T06:58:14.869Z,6.85
2023-03-27T07:00:45.644Z,9.00
2023-03-27T07:03:22.883Z,10.93
2023-03-27T07:05:56.059Z,5.85
2023-03-27T07:08:34.819Z,6.55
2023-03-27T07:11:11.276Z,4.90
2023-03-27T07:13:49.968Z,3.72
2023-03-27T07:16:26.901Z,4.80
2023-03-27T07:19:03.879Z,3.85
2023-03-27T07:21:42.879Z,6.40
2023-03-27T07:24:13.405Z,3.42
2023-03-27T07:26:49.942Z,6.30
2023-03-27T07:29:20.912Z,5.45
2023-03-27T07:32:02.861Z,5.85
2023-03-27T07:34:36.678Z,6.32
2023-03-27T07:37:15.889Z,5.60
2023-03-27T07:39:46.725Z,5.10
2023-03-27T07:42:24.016Z,3.83
2023-03-27T07:44:54.460Z,5.63
2023-03-27T07:47:34.948Z,6.35
2023-03-27T07:50:05.254Z,3.70
2023-03-27T07:52:46.878Z,3.58
2023-03-27T07:55:19.851Z,3.65
2023-03-27T07:58:02.769Z,1.30
2023-03-27T08:00:35.551Z,3.38
2023-03-27T08:03:17.279Z,2.08
2023-03-27T08:05:55.107Z,2.35
2023-03-27T08:08:35.061Z,2.35
2023-03-27T08:11:13.505Z,3.15
2023-03-27T08:13:56.940Z,3.60
2023-03-27T08:16:36.144Z,4.05
2023-03-27T08:19:06.688Z,5.13
2023-03-27T08:21:43.955Z,4.82
2023-03-27T08:24:16.910Z,4.57
2023-03-27T08:26:53.955Z,4.43
2023-03-27T08:29:27.331Z,5.68
2023-03-27T08:32:04.045Z,5.03
2023-03-27T08:34:40.993Z,9.50
2023-03-27T08:37:11.803Z,7.68
2023-03-27T08:39:52.923Z,5.97
2023-03-27T08:42:32.802Z,5.53
2023-03-27T08:45:23.995Z,8.13
2023-03-27T08:48:01.952Z,3.45
2023-03-27T08:50:45.998Z,5.35
2023-03-27T08:53:29.444Z,4.93
2023-03-27T08:56:10.000Z,5.95
2023-03-27T08:58:47.004Z,5.20
2023-03-27T09:01:33.096Z,5.20
2023-03-27T09:04:18.953Z,6.80
2023-03-27T09:06:59.659Z,7.13
2023-03-27T09:09:52.038Z,4.78
2023-03-27T09:12:46.109Z,7.85
2023-03-27T09:15:22.185Z,5.72
2023-03-27T09:18:05.015Z,7.38
2023-03-27T09:20:41.457Z,6.07
2023-03-27T09:23:25.033Z,4.80
2023-03-27T09:25:59.679Z,3.97
2023-03-27T09:28:47.889Z,7.47
2023-03-27T09:31:29.348Z,4.22
2023-03-27T09:34:14.018Z,3.60
2023-03-27T09:36:51.142Z,4.60
2023-03-27T09:39:34.083Z,4.68
2023-03-27T09:42:23.077Z,6.38
2023-03-27T09:44:59.944Z,5.93
2023-03-27T09:47:44.078Z,5.22
2023-03-27T09:50:35.107Z,6.65
2023-03-27T09:53:21.098Z,4.88
2023-03-27T09:55:55.885Z,5.93
2023-03-27T09:58:46.092Z,5.90
2023-03-27T10:01:29.589Z,5.95
2023-03-27T10:04:08.154Z,5.85
2023-03-27T10:06:52.190Z,7.22
2023-03-27T10:09:28.592Z,6.95
2023-03-27T10:12:19.042Z,6.32
2023-03-27T10:14:53.019Z,7.32
2023-03-27T10:17:39.190Z,6.85
2023-03-27T10:20:25.125Z,8.63
2023-03-27T10:23:04.165Z,7.45
2023-03-27T10:25:38.085Z,7.93
2023-03-27T10:28:27.152Z,4.88
2023-03-27T10:31:05.740Z,5.57
2023-03-27T10:33:48.157Z,2.92
2023-03-27T10:36:20.390Z,5.97
2023-03-27T10:39:06.135Z,4.00
2023-03-27T10:41:39.538Z,2.85
2023-03-27T10:44:25.163Z,5.55
2023-03-27T10:46:56.388Z,7.57
2023-03-27T10:49:48.164Z,4.97
2023-03-27T10:52:26.741Z,5.90
2023-03-27T10:55:31.234Z,6.13
2023-03-27T10:58:07.690Z,5.07
2023-03-27T11:00:50.173Z,8.73
2023-03-27T11:03:33.361Z,5.43
2023-03-27T11:06:17.173Z,3.13
2023-03-27T11:09:06.053Z,6.10
2023-03-27T11:11:48.160Z,4.85
2023-03-27T11:14:26.374Z,4.55
2023-03-27T11:17:10.367Z,6.55
2023-03-27T11:19:47.509Z,5.95
2023-03-27T11:22:34.156Z,5.63
2023-03-27T11:25:16.083Z,3.83
2023-03-27T11:30:50.196Z,7.60
2023-03-27T11:36:42.201Z,4.57
2023-03-27T11:39:27.315Z,7.63
2023-03-27T11:42:08.180Z,5.45
2023-03-27T11:44:38.781Z,5.53
2023-03-27T11:47:38.321Z,6.43
2023-03-27T11:50:31.956Z,5.28
2023-03-27T11:53:40.281Z,6.90
2023-03-27T11:56:29.302Z,5.75
2023-03-27T11:59:25.278Z,7.13
2023-03-27T12:02:05.470Z,5.80
2023-03-27T12:04:58.232Z,4.63
2023-03-27T12:07:47.815Z,7.55
2023-03-27T12:10:39.313Z,5.80
2023-03-27T12:14:02.276Z,7.73
2023-03-27T12:17:22.323Z,6.65
2023-03-27T12:20:48.674Z,7.05
2023-03-27T12:23:47.267Z,7.07
2023-03-27T12:26:39.683Z,7.82
2023-03-27T12:29:40.318Z,7.65
2023-03-27T12:32:29.157Z,11.60
2023-03-27T12:35:10.345Z,7.47
2023-03-27T12:37:45.900Z,10.05
2023-03-27T12:40:39.296Z,6.80
2023-03-27T12:43:29.594Z,5.50
2023-03-27T12:46:45.335Z,8.00
2023-03-27T12:49:59.649Z,8.05
2023-03-27T12:52:37.341Z,8.93
2023-03-27T12:55:40.407Z,7.60
2023-03-27T12:58:14.704Z,5.53
2023-03-27T13:01:01.496Z,7.57
